Time;durP1;ratioP1;P1;durP2;ratioP2;P2;SDS_P1;SDS_P2;PMS_P1;PMS_P2;Temp;Humidity;BMP_temperature;BMP_pressure;BME280_temperature;BME280_humidity;BME280_pressure;Samples;Min_cycle;Max_cycle;Signal;HPM_P1;HPM_P2
2021/12/07 00:01:03;;;;;;;3.17;2.63;;;10.90;62.50;;;;;;5000549;28;20390;-71
2021/12/07 00:03:30;;;;;;;2.80;2.55;;;10.90;62.40;;;;;;4999472;28;20121;-72
2021/12/07 00:05:56;;;;;;;3.90;2.78;;;10.90;62.40;;;;;;4999362;28;20046;-72
2021/12/07 00:08:22;;;;;;;3.55;3.03;;;10.90;63.00;;;;;;4999168;28;20058;-72
2021/12/07 00:10:50;;;;;;;3.47;2.70;;;10.90;62.50;;;;;;4999993;28;20041;-72
2021/12/07 00:13:16;;;;;;;3.43;2.73;;;10.90;62.50;;;;;;5015482;28;20097;-71
2021/12/07 00:15:42;;;;;;;2.95;2.63;;;10.90;62.50;;;;;;5000254;28;20484;-72
2021/12/07 00:18:08;;;;;;;3.17;2.20;;;10.90;62.50;;;;;;4999034;28;20033;-72
2021/12/07 00:20:35;;;;;;;3.05;2.70;;;10.90;62.50;;;;;;5000654;28;20015;-72
2021/12/07 00:23:07;;;;;;;3.00;2.63;;;10.90;62.40;;;;;;5000289;28;20077;-71
2021/12/07 00:25:34;;;;;;;3.30;2.90;;;10.90;62.40;;;;;;5000328;28;20019;-72
2021/12/07 00:28:00;;;;;;;3.13;2.50;;;10.90;62.40;;;;;;5015406;28;20030;-71
2021/12/07 00:30:30;;;;;;;3.78;2.88;;;10.90;62.30;;;;;;5000296;28;20190;-71
2021/12/07 00:33:10;;;;;;;3.25;2.63;;;10.90;62.40;;;;;;5003908;28;20648;-72
2021/12/07 00:35:37;;;;;;;3.42;2.60;;;10.80;62.40;;;;;;5006679;28;20289;-72
2021/12/07 00:38:13;;;;;;;3.85;2.75;;;10.90;62.40;;;;;;5006680;28;20153;-72
2021/12/07 00:40:40;;;;;;;3.55;2.40;;;10.90;62.40;;;;;;5006688;28;20218;-72
2021/12/07 00:43:06;;;;;;;2.83;2.38;;;10.90;62.40;;;;;;5006564;28;20217;-71
2021/12/07 00:45:34;;;;;;;3.20;2.70;;;10.90;62.50;;;;;;5006626;28;20030;-72
2021/12/07 00:48:00;;;;;;;3.72;3.10;;;10.80;62.50;;;;;;5006938;28;20057;-72
2021/12/07 00:50:27;;;;;;;3.42;3.00;;;10.80;62.50;;;;;;5006588;28;20015;-71
2021/12/07 00:52:53;;;;;;;3.55;2.88;;;10.80;62.60;;;;;;5021701;28;20106;-72
2021/12/07 00:55:25;;;;;;;3.70;3.05;;;10.80;62.50;;;;;;5006471;28;20050;-72
2021/12/07 00:57:53;;;;;;;2.53;2.33;;;10.80;62.60;;;;;;5006558;28;20030;-72
2021/12/07 01:00:20;;;;;;;3.45;2.60;;;10.80;62.60;;;;;;5006596;28;20022;-71
2021/12/07 01:02:46;;;;;;;3.10;2.38;;;10.80;62.50;;;;;;5006477;28;20034;-72
2021/12/07 01:05:23;;;;;;;2.97;2.40;;;10.80;62.40;;;;;;5021550;28;20221;-72
2021/12/07 01:26:53;;;;;;;4.10;2.78;;;10.80;62.50;;;;;;5006385;28;20032;-72
2021/12/07 01:29:22;;;;;;;3.90;2.78;;;10.80;62.50;;;;;;5006262;28;20019;-72
2021/12/07 01:37:13;;;;;;;3.33;2.70;;;10.70;62.60;;;;;;5006334;28;20305;-71
2021/12/07 01:43:19;;;;;;;6.13;3.05;;;10.80;62.50;;;;;;4986831;28;20049;-69
2021/12/07 01:46:11;;;;;;;3.13;2.47;;;10.80;62.50;;;;;;5002082;28;20069;-71
2021/12/07 02:01:10;;;;;;;2.58;2.38;;;10.80;62.40;;;;;;5003131;28;20021;-72
2021/12/07 02:03:38;;;;;;;2.97;2.30;;;10.80;62.50;;;;;;5002768;28;20045;-71
2021/12/07 02:06:05;;;;;;;4.28;2.67;;;10.80;62.50;;;;;;5001894;28;20042;-71
2021/12/07 02:08:30;;;;;;;4.25;2.67;;;10.80;62.50;;;;;;5002745;28;20030;-71
2021/12/07 02:11:00;;;;;;;3.53;2.85;;;10.80;62.60;;;;;;5002668;28;20054;-71
2021/12/07 02:15:55;;;;;;;3.83;2.95;;;10.80;62.60;;;;;;5002829;28;20033;-72
2021/12/07 02:18:21;;;;;;;4.55;2.88;;;10.80;62.50;;;;;;5002577;28;20030;-71
2021/12/07 02:20:48;;;;;;;3.63;2.85;;;10.80;62.60;;;;;;5002520;28;20037;-71
2021/12/07 02:23:14;;;;;;;3.63;2.72;;;10.80;62.50;;;;;;5002337;28;20352;-72
2021/12/07 02:25:40;;;;;;;3.13;2.70;;;10.80;62.50;;;;;;5002413;28;20028;-70
2021/12/07 02:28:11;;;;;;;3.67;2.80;;;10.80;62.50;;;;;;5017389;28;20025;-71
2021/12/07 02:30:37;;;;;;;3.03;2.60;;;10.70;62.50;;;;;;5002269;28;20060;-72
2021/12/07 02:33:03;;;;;;;3.10;2.35;;;10.70;62.40;;;;;;5002212;28;20018;-71
2021/12/07 02:35:29;;;;;;;4.88;2.90;;;10.70;62.50;;;;;;5002229;28;20018;-71
2021/12/07 02:37:57;;;;;;;2.65;2.45;;;10.80;62.40;;;;;;5002150;28;20089;-71
2021/12/07 02:40:22;;;;;;;3.20;2.58;;;10.80;62.50;;;;;;5002094;28;20022;-71
2021/12/07 02:42:48;;;;;;;3.55;2.90;;;10.70;62.50;;;;;;5001953;28;20348;-71
2021/12/07 02:45:16;;;;;;;3.70;2.58;;;10.70;62.60;;;;;;5002051;28;20521;-71
2021/12/07 02:47:41;;;;;;;2.30;2.10;;;10.70;62.60;;;;;;5001959;28;20085;-72
2021/12/07 02:50:08;;;;;;;3.83;2.70;;;10.70;62.50;;;;;;5001941;28;20018;-72
2021/12/07 02:52:35;;;;;;;3.47;3.10;;;10.70;62.50;;;;;;5002149;28;20022;-72
2021/12/07 02:55:02;;;;;;;3.65;2.65;;;10.70;62.40;;;;;;5001332;28;20062;-72
2021/12/07 02:57:30;;;;;;;2.38;2.13;;;10.70;62.50;;;;;;5001759;28;20018;-72
2021/12/07 03:00:05;;;;;;;3.78;3.08;;;10.80;62.50;;;;;;5001738;28;20061;-72
2021/12/07 03:02:35;;;;;;;3.38;2.72;;;10.70;62.40;;;;;;5001677;28;20033;-72
2021/12/07 03:05:10;;;;;;;3.95;2.80;;;10.70;62.40;;;;;;5001731;28;20022;-73
2021/12/07 03:07:49;;;;;;;3.45;2.83;;;10.70;62.50;;;;;;5001607;28;20038;-71
2021/12/07 03:26:38;;;;;;;3.05;2.45;;;10.70;62.40;;;;;;5001261;28;20392;-71
2021/12/07 03:29:04;;;;;;;3.33;2.58;;;10.70;62.50;;;;;;5000007;28;20027;-71
2021/12/07 03:31:30;;;;;;;4.20;2.78;;;10.70;63.10;;;;;;5001147;28;20222;-71
2021/12/07 03:33:59;;;;;;;3.33;2.40;;;10.70;62.40;;;;;;5001031;28;20053;-72
2021/12/07 03:36:26;;;;;;;3.53;2.90;;;10.70;62.40;;;;;;5016176;28;20453;-71
2021/12/07 03:38:52;;;;;;;2.22;2.03;;;10.70;62.50;;;;;;5016083;28;20045;-72
2021/12/07 03:41:18;;;;;;;3.35;2.67;;;10.70;62.40;;;;;;5016079;28;20102;-72
2021/12/07 03:43:45;;;;;;;3.33;2.63;;;10.70;62.40;;;;;;5000835;28;20038;-71
2021/12/07 03:46:13;;;;;;;3.50;2.67;;;10.70;62.40;;;;;;5000847;28;20045;-71
2021/12/07 03:48:40;;;;;;;2.75;2.47;;;10.70;62.50;;;;;;5000842;28;20385;-71
2021/12/07 03:51:07;;;;;;;6.10;3.00;;;10.70;63.20;;;;;;5000853;28;20033;-71
2021/12/07 03:53:33;;;;;;;3.35;2.70;;;10.70;62.50;;;;;;5000585;28;20045;-71
2021/12/07 03:56:02;;;;;;;3.20;2.65;;;10.70;62.50;;;;;;5015882;28;20034;-71
2021/12/07 03:58:28;;;;;;;3.53;2.78;;;10.70;62.50;;;;;;5000631;28;20026;-72
2021/12/07 04:00:54;;;;;;;3.40;2.92;;;10.70;62.50;;;;;;5000699;28;20026;-72
2021/12/07 04:03:20;;;;;;;3.08;2.40;;;10.70;62.60;;;;;;4999291;28;20045;-71
2021/12/07 04:05:49;;;;;;;3.25;2.65;;;10.70;62.60;;;;;;5000562;28;20200;-72
2021/12/07 04:08:17;;;;;;;;;;;10.70;62.40;;;;;;5000206;28;20081;-72
2021/12/07 04:10:43;;;;;;;2.92;2.45;;;10.70;62.40;;;;;;5000494;28;19902;-71
2021/12/07 04:13:09;;;;;;;3.15;2.60;;;10.70;62.40;;;;;;5015548;28;20226;-71
2021/12/07 04:15:34;;;;;;;3.40;2.80;;;10.70;62.50;;;;;;4999130;28;20033;-71
2021/12/07 04:18:01;;;;;;;4.03;2.80;;;10.70;62.50;;;;;;5000409;28;20018;-71
2021/12/07 04:20:26;;;;;;;4.28;3.00;;;10.70;62.50;;;;;;5000346;28;20030;-72
2021/12/07 04:22:54;;;;;;;3.00;2.38;;;10.70;62.50;;;;;;5000233;28;20335;-72
2021/12/07 04:25:20;;;;;;;2.10;1.90;;;10.70;62.50;;;;;;5000301;28;20026;-72
2021/12/07 04:27:46;;;;;;;2.92;2.22;;;10.70;62.50;;;;;;4998945;28;20132;-71
2021/12/07 04:30:26;;;;;;;3.83;2.58;;;10.70;62.50;;;;;;5000218;28;20030;-72
2021/12/07 04:32:53;;;;;;;3.83;2.85;;;10.70;62.60;;;;;;4999126;28;20249;-72
2021/12/07 04:35:20;;;;;;;3.75;2.90;;;10.60;62.60;;;;;;5000166;28;20018;-72
2021/12/07 04:37:46;;;;;;;3.70;2.70;;;10.70;62.50;;;;;;5000118;28;20018;-71
2021/12/07 04:40:16;;;;;;;3.05;2.50;;;10.70;62.50;;;;;;5000078;28;20037;-71
2021/12/07 04:42:42;;;;;;;3.30;2.58;;;10.70;62.60;;;;;;5000013;28;20037;-71
2021/12/07 04:45:13;;;;;;;3.58;2.88;;;10.70;62.50;;;;;;5000028;28;20038;-71
2021/12/07 04:47:53;;;;;;;4.72;3.15;;;10.70;62.50;;;;;;5000345;28;20405;-71
2021/12/07 04:58:24;;;;;;;4.05;3.00;;;10.70;62.50;;;;;;5000008;28;20376;-72
2021/12/07 05:00:50;;;;;;;3.30;2.95;;;10.60;62.50;;;;;;5015075;28;20109;-72
2021/12/07 05:03:16;;;;;;;3.90;3.00;;;10.60;62.50;;;;;;5000159;28;20027;-72
2021/12/07 05:05:47;;;;;;;3.83;2.88;;;10.60;62.60;;;;;;4999914;28;20081;-71
2021/12/07 05:08:16;;;;;;;3.65;2.80;;;10.70;62.50;;;;;;4999931;28;20054;-71
2021/12/07 05:39:50;;;;;;;3.38;2.53;;;10.60;62.50;;;;;;5003295;28;20258;-71
2021/12/07 05:42:17;;;;;;;4.32;2.80;;;10.60;62.50;;;;;;5003110;28;20109;-72
2021/12/07 05:44:42;;;;;;;3.05;2.75;;;10.60;62.60;;;;;;5003197;28;20332;-71
2021/12/07 05:47:09;;;;;;;3.53;2.60;;;10.60;62.60;;;;;;5003046;28;20027;-71
2021/12/07 05:49:35;;;;;;;3.53;2.97;;;10.60;62.60;;;;;;5003058;28;20437;-71
2021/12/07 05:52:01;;;;;;;3.47;2.63;;;10.60;62.50;;;;;;5018130;28;20485;-71
2021/12/07 05:54:27;;;;;;;3.58;2.80;;;10.60;62.50;;;;;;5002794;28;20277;-72
2021/12/07 05:56:53;;;;;;;3.88;2.67;;;10.60;62.50;;;;;;5002879;28;20069;-71
2021/12/07 05:59:19;;;;;;;3.78;2.50;;;10.60;62.50;;;;;;5017989;28;20026;-71
2021/12/07 06:01:45;;;;;;;4.20;2.90;;;10.60;62.60;;;;;;5002874;28;20060;-72
2021/12/07 06:04:11;;;;;;;4.53;2.88;;;10.60;62.60;;;;;;5002762;28;20437;-72
2021/12/07 06:06:36;;;;;;;3.00;2.42;;;10.60;62.40;;;;;;5001452;28;20022;-72
2021/12/07 06:09:03;;;;;;;3.80;2.78;;;10.60;62.30;;;;;;5002725;28;20018;-71
2021/12/07 06:11:29;;;;;;;3.40;2.67;;;10.60;62.30;;;;;;5002584;28;20262;-71
2021/12/07 06:13:55;;;;;;;3.72;2.65;;;10.60;62.40;;;;;;5002595;28;20093;-71
2021/12/07 06:16:20;;;;;;;3.40;2.58;;;10.60;62.40;;;;;;5002584;28;20023;-71
2021/12/07 06:18:47;;;;;;;3.55;2.72;;;10.60;62.50;;;;;;5002545;28;20037;-72
2021/12/07 06:21:13;;;;;;;3.72;2.80;;;10.60;62.60;;;;;;5002473;28;20126;-71
2021/12/07 06:23:40;;;;;;;3.55;2.65;;;10.60;62.60;;;;;;5001154;28;20409;-72
2021/12/07 06:26:05;;;;;;;3.50;2.80;;;10.60;62.60;;;;;;5002425;28;20341;-72
2021/12/07 06:28:31;;;;;;;2.95;2.40;;;10.60;63.10;;;;;;5001026;28;20026;-71
2021/12/07 06:30:57;;;;;;;4.30;3.08;;;10.60;62.50;;;;;;5001573;28;20082;-71
2021/12/07 06:33:25;;;;;;;3.05;2.75;;;10.60;62.50;;;;;;5002184;28;20091;-72
2021/12/07 06:35:57;;;;;;;5.15;3.30;;;10.60;62.50;;;;;;5002191;28;20014;-72
2021/12/07 06:38:34;;;;;;;4.05;3.08;;;10.60;62.50;;;;;;5002143;28;20026;-71
2021/12/07 06:41:02;;;;;;;2.78;2.42;;;10.60;62.50;;;;;;5002077;28;20226;-71
2021/12/07 06:43:28;;;;;;;2.30;1.83;;;10.60;62.40;;;;;;5002022;28;20030;-72
2021/12/07 06:45:54;;;;;;;3.33;3.03;;;10.60;62.40;;;;;;5001964;28;20341;-72
2021/12/07 06:48:20;;;;;;;3.58;2.42;;;10.60;62.30;;;;;;5017060;28;20222;-71
2021/12/07 06:50:47;;;;;;;3.65;2.45;;;10.60;62.30;;;;;;5000628;28;20014;-71
2021/12/07 06:53:13;;;;;;;3.08;2.35;;;10.60;62.30;;;;;;5016885;28;20314;-72
2021/12/07 06:55:39;;;;;;;3.72;2.70;;;10.60;62.40;;;;;;5001662;28;20101;-71
2021/12/07 06:58:04;;;;;;;3.40;2.80;;;10.60;62.50;;;;;;5001760;28;20084;-72
2021/12/07 07:00:32;;;;;;;3.92;2.70;;;10.60;62.40;;;;;;5001728;28;20033;-71
2021/12/07 07:02:57;;;;;;;3.55;2.60;;;10.50;62.50;;;;;;5016637;28;20281;-71
2021/12/07 07:05:23;;;;;;;4.00;3.20;;;10.60;63.20;;;;;;5000340;28;20026;-72
2021/12/07 07:07:49;;;;;;;3.95;2.65;;;10.60;62.50;;;;;;5016651;28;20218;-71
2021/12/07 07:10:17;;;;;;;3.10;2.80;;;10.60;62.50;;;;;;5001527;28;20326;-71
2021/12/07 07:12:44;;;;;;;4.20;2.75;;;10.60;62.50;;;;;;5001518;28;20086;-73
2021/12/07 07:15:10;;;;;;;4.38;3.42;;;10.60;62.50;;;;;;5001430;28;20034;-72
2021/12/07 07:17:36;;;;;;;3.83;2.67;;;10.60;62.50;;;;;;5001356;28;20305;-71
2021/12/07 07:20:04;;;;;;;3.53;2.80;;;10.60;62.50;;;;;;5001268;28;20356;-72
2021/12/07 07:22:30;;;;;;;4.07;3.13;;;10.60;62.50;;;;;;5001253;28;20271;-72
2021/12/07 07:24:56;;;;;;;2.60;2.25;;;10.60;62.40;;;;;;5001175;28;20014;-72
2021/12/07 07:27:22;;;;;;;3.65;2.92;;;10.60;62.40;;;;;;5001173;28;20229;-72
2021/12/07 07:29:47;;;;;;;3.85;2.72;;;10.60;62.30;;;;;;4999849;28;20018;-71
2021/12/07 07:32:14;;;;;;;3.05;2.60;;;10.60;62.30;;;;;;5001054;28;20034;-72
2021/12/07 07:34:40;;;;;;;3.38;2.70;;;10.60;62.50;;;;;;5001003;28;20034;-72
2021/12/07 07:37:08;;;;;;;4.00;3.08;;;10.60;62.60;;;;;;5000982;28;20042;-71
2021/12/07 07:39:34;;;;;;;3.22;2.53;;;10.50;62.50;;;;;;5016057;28;20129;-72
2021/12/07 07:42:00;;;;;;;3.85;2.50;;;10.60;62.50;;;;;;4999871;28;20258;-72
2021/12/07 07:44:26;;;;;;;5.15;3.17;;;10.60;62.40;;;;;;4999580;28;20015;-71
2021/12/07 07:46:52;;;;;;;2.72;2.50;;;10.60;62.40;;;;;;4999532;28;20026;-71
2021/12/07 07:49:17;;;;;;;3.35;2.70;;;10.60;62.40;;;;;;5000768;28;20015;-71
2021/12/07 07:51:43;;;;;;;3.65;2.72;;;10.60;62.30;;;;;;4999496;28;20033;-71
2021/12/07 07:54:09;;;;;;;4.57;3.15;;;10.60;62.30;;;;;;5000486;28;20038;-71
2021/12/07 07:56:36;;;;;;;3.33;2.72;;;10.60;62.30;;;;;;5000668;28;20196;-71
2021/12/07 07:59:03;;;;;;;3.30;2.92;;;10.60;62.20;;;;;;5000571;28;20022;-71
2021/12/07 08:01:30;;;;;;;3.47;2.45;;;10.60;62.20;;;;;;5000578;28;20034;-72
2021/12/07 08:03:57;;;;;;;2.55;2.35;;;10.70;62.10;;;;;;5000482;28;20277;-71
2021/12/07 08:06:23;;;;;;;3.67;2.70;;;10.70;62.00;;;;;;5000510;28;20022;-72
2021/12/07 08:08:49;;;;;;;3.45;2.60;;;10.70;62.00;;;;;;5000489;28;20010;-72
2021/12/07 08:11:14;;;;;;;5.18;2.80;;;10.80;61.90;;;;;;5000463;28;20023;-72
2021/12/07 08:13:41;;;;;;;2.95;2.25;;;10.80;61.80;;;;;;5000443;28;20027;-71
2021/12/07 08:16:15;;;;;;;3.53;2.88;;;10.80;61.70;;;;;;5015627;28;20027;-73
2021/12/07 08:18:42;;;;;;;3.97;2.80;;;10.80;61.70;;;;;;5000876;28;20080;-73
2021/12/07 08:21:08;;;;;;;3.13;2.70;;;10.90;61.50;;;;;;5001596;28;20022;-72
2021/12/07 08:23:35;;;;;;;3.55;2.78;;;10.90;61.30;;;;;;5016705;28;20076;-74
2021/12/07 08:26:01;;;;;;;3.17;2.42;;;11.00;61.30;;;;;;5000782;28;20086;-73
2021/12/07 08:28:27;;;;;;;4.22;2.78;;;11.00;61.20;;;;;;5000679;28;20022;-73
2021/12/07 08:30:53;;;;;;;3.92;2.85;;;11.10;61.10;;;;;;5016739;28;20026;-73
2021/12/07 08:33:19;;;;;;;4.13;3.10;;;11.10;61.00;;;;;;5015964;28;20052;-72
2021/12/07 08:35:44;;;;;;;3.50;2.50;;;11.10;60.90;;;;;;4999700;28;20064;-72
2021/12/07 08:38:10;;;;;;;3.35;2.75;;;11.10;60.90;;;;;;5000917;28;20049;-72
2021/12/07 08:40:39;;;;;;;3.45;2.92;;;11.10;61.10;;;;;;5000852;28;20297;-72
2021/12/07 08:43:06;;;;;;;3.03;2.50;;;11.10;61.00;;;;;;5000492;28;20037;-73
2021/12/07 08:45:32;;;;;;;3.53;2.63;;;11.10;61.00;;;;;;5000328;28;20014;-72
2021/12/07 08:47:59;;;;;;;3.22;2.40;;;11.10;61.10;;;;;;5000243;28;20085;-72
2021/12/07 08:50:29;;;;;;;4.13;2.88;;;11.10;61.10;;;;;;5015228;28;20023;-74
2021/12/07 08:53:02;;;;;;;;;;;11.10;61.10;;;;;;5000595;28;20032;-71
2021/12/07 09:00:57;;;;;;;3.80;2.88;;;11.00;61.10;;;;;;5003931;28;20108;-71
2021/12/07 09:03:22;;;;;;;3.58;2.60;;;11.10;61.10;;;;;;5003808;28;20536;-72
2021/12/07 09:05:48;;;;;;;4.57;3.28;;;11.10;61.20;;;;;;5003773;28;20022;-71
2021/12/07 09:08:16;;;;;;;3.45;2.72;;;11.10;61.10;;;;;;5018914;28;20344;-71
2021/12/07 09:10:42;;;;;;;2.90;2.38;;;11.10;61.20;;;;;;5018775;28;20026;-71
2021/12/07 09:13:08;;;;;;;3.28;2.30;;;11.00;61.20;;;;;;5003703;28;20269;-71
2021/12/07 09:15:34;;;;;;;3.05;2.58;;;11.10;61.20;;;;;;5002664;28;20030;-71
2021/12/07 09:18:00;;;;;;;3.67;2.90;;;11.00;61.30;;;;;;5003549;28;20089;-71
2021/12/07 09:20:26;;;;;;;2.95;2.55;;;11.00;61.20;;;;;;5003623;28;20093;-71
2021/12/07 09:22:52;;;;;;;2.75;2.40;;;11.10;61.20;;;;;;5002182;28;20250;-72
2021/12/07 09:25:18;;;;;;;3.00;2.50;;;11.10;60.90;;;;;;5003501;28;20042;-71
2021/12/07 09:27:44;;;;;;;2.83;2.47;;;11.20;60.90;;;;;;5018471;28;20038;-71
2021/12/07 09:30:14;;;;;;;3.42;2.58;;;11.20;60.70;;;;;;5003355;28;20049;-72
2021/12/07 09:32:40;;;;;;;3.50;2.67;;;11.30;60.60;;;;;;5003262;28;20030;-71
2021/12/07 09:35:07;;;;;;;3.22;2.60;;;11.30;60.40;;;;;;5003206;28;20018;-71
2021/12/07 09:37:34;;;;;;;2.90;2.58;;;11.30;60.40;;;;;;5003169;28;20030;-71
2021/12/07 09:40:01;;;;;;;3.72;2.65;;;11.50;59.80;;;;;;5018250;28;20037;-72
2021/12/07 09:42:26;;;;;;;3.90;3.20;;;11.60;59.40;;;;;;5003029;28;20045;-72
2021/12/07 09:44:52;;;;;;;3.22;2.53;;;11.70;59.10;;;;;;5001813;28;20015;-72
2021/12/07 09:47:18;;;;;;;4.05;2.92;;;11.70;58.90;;;;;;5002953;28;20353;-71
2021/12/07 09:49:44;;;;;;;2.60;2.40;;;11.80;58.80;;;;;;5003012;28;20030;-72
2021/12/07 09:52:10;;;;;;;3.05;2.70;;;11.80;58.70;;;;;;5002957;28;20028;-72
2021/12/07 09:54:35;;;;;;;3.17;2.70;;;11.80;58.70;;;;;;5002669;28;20050;-72
2021/12/07 09:57:01;;;;;;;3.10;2.80;;;11.80;58.70;;;;;;5002862;28;20022;-72
2021/12/07 09:59:27;;;;;;;3.90;3.00;;;11.80;58.70;;;;;;5017921;28;20109;-71
2021/12/07 10:01:52;;;;;;;3.85;2.67;;;11.80;58.70;;;;;;5002714;28;20018;-71
2021/12/07 10:04:19;;;;;;;3.83;2.95;;;11.90;58.70;;;;;;5017437;28;20030;-72
2021/12/07 10:06:44;;;;;;;3.22;2.47;;;11.90;58.70;;;;;;5001884;28;20089;-71
2021/12/07 10:09:10;;;;;;;4.38;2.95;;;11.90;58.50;;;;;;5002616;28;20210;-72
2021/12/07 10:11:36;;;;;;;2.80;2.47;;;11.90;58.60;;;;;;5017682;28;20109;-71
2021/12/07 10:14:03;;;;;;;3.90;2.58;;;11.90;58.70;;;;;;5002495;28;20030;-72
2021/12/07 10:16:29;;;;;;;3.50;2.67;;;11.90;58.60;;;;;;5002540;28;20330;-72
2021/12/07 10:18:54;;;;;;;3.88;2.55;;;11.90;58.60;;;;;;5002375;28;20026;-72
2021/12/07 10:21:25;;;;;;;3.70;2.97;;;11.90;58.50;;;;;;5002400;28;20032;-72
2021/12/07 10:24:00;;;;;;;4.22;2.67;;;11.90;58.50;;;;;;5001091;28;20027;-72
2021/12/07 10:26:29;;;;;;;4.45;2.67;;;11.90;58.60;;;;;;5002275;28;20082;-71
2021/12/07 10:29:14;;;;;;;3.10;2.63;;;11.90;58.70;;;;;;5002235;28;20027;-71
2021/12/07 10:31:43;;;;;;;2.95;2.65;;;11.90;58.70;;;;;;5002142;28;20026;-71
2021/12/07 10:34:13;;;;;;;2.97;2.67;;;11.90;58.70;;;;;;5002242;28;20416;-72
2021/12/07 10:37:11;;;;;;;5.68;3.15;;;11.90;58.80;;;;;;5000922;28;20652;-72
2021/12/07 10:39:41;;;;;;;3.33;2.58;;;11.90;58.90;;;;;;5001720;28;20057;-71
2021/12/07 10:42:14;;;;;;;3.70;2.90;;;11.90;58.90;;;;;;5002004;28;20029;-72
2021/12/07 10:44:41;;;;;;;3.72;2.58;;;11.90;58.80;;;;;;5017090;28;20023;-72
2021/12/07 10:47:13;;;;;;;3.10;2.50;;;11.90;58.70;;;;;;5001929;28;20065;-72
2021/12/07 10:49:50;;;;;;;4.47;3.03;;;12.00;58.80;;;;;;5001936;28;20027;-72
2021/12/07 10:52:19;;;;;;;4.25;2.85;;;12.00;58.70;;;;;;5001831;28;20054;-71
2021/12/07 10:54:50;;;;;;;3.08;2.47;;;12.00;58.70;;;;;;5000383;28;20049;-71
2021/12/07 10:57:21;;;;;;;3.40;2.40;;;12.00;58.60;;;;;;5001711;28;20351;-71
2021/12/07 11:00:07;;;;;;;3.53;2.63;;;12.00;58.50;;;;;;5001744;28;20018;-72
2021/12/07 11:02:36;;;;;;;3.72;3.00;;;12.00;58.70;;;;;;5001622;28;20034;-71
2021/12/07 11:05:05;;;;;;;4.10;3.05;;;12.00;58.70;;;;;;5001583;28;20072;-72
2021/12/07 11:07:31;;;;;;;4.00;2.88;;;12.00;58.80;;;;;;5001555;28;20322;-71
2021/12/07 11:10:10;;;;;;;3.67;2.78;;;12.00;59.00;;;;;;5001545;28;20026;-70
2021/12/07 11:12:50;;;;;;;3.00;2.35;;;11.90;59.00;;;;;;5000202;28;20018;-71
2021/12/07 11:15:23;;;;;;;3.58;2.53;;;11.90;59.10;;;;;;5001477;28;20026;-71
2021/12/07 11:17:53;;;;;;;4.20;3.13;;;11.90;59.10;;;;;;5001190;28;20022;-71
2021/12/07 11:20:19;;;;;;;3.88;2.83;;;11.90;59.10;;;;;;5001283;28;20019;-71
2021/12/07 11:22:51;;;;;;;3.63;2.42;;;11.90;59.10;;;;;;5016419;28;20081;-71
2021/12/07 11:29:39;;;;;;;3.85;2.80;;;11.90;58.90;;;;;;5001224;28;20261;-71
2021/12/07 11:31:33;;;;;;;3.08;2.67;;;12.00;58.80;;;;;;5001113;28;20069;-71
2021/12/07 11:34:15;;;;;;;4.05;2.88;;;12.00;58.90;;;;;;5001126;28;20044;-72
2021/12/07 11:36:50;;;;;;;3.05;2.60;;;12.00;58.90;;;;;;5001080;28;20103;-72
2021/12/07 11:39:37;;;;;;;4.20;3.13;;;12.00;58.80;;;;;;5016165;28;20576;-71
2021/12/07 11:42:13;;;;;;;3.55;2.80;;;12.00;58.70;;;;;;5000898;28;20291;-72
2021/12/07 11:44:53;;;;;;;4.20;2.80;;;12.00;58.90;;;;;;5000921;28;20206;-72
2021/12/07 11:47:35;;;;;;;3.60;2.92;;;12.00;59.00;;;;;;5000774;28;20222;-71
2021/12/07 11:50:13;;;;;;;3.42;2.90;;;11.90;59.10;;;;;;5015964;28;20022;-70
2021/12/07 11:52:39;;;;;;;3.67;3.00;;;11.90;59.10;;;;;;5000800;28;20041;-71
2021/12/07 11:55:06;;;;;;;3.40;3.10;;;11.90;59.00;;;;;;5000552;28;20121;-71
2021/12/07 11:57:32;;;;;;;4.53;2.88;;;12.00;59.00;;;;;;5015805;28;20065;-70
2021/12/07 11:59:58;;;;;;;5.25;2.78;;;11.90;58.90;;;;;;4999443;28;20234;-72
2021/12/07 12:02:24;;;;;;;3.33;2.58;;;11.90;58.90;;;;;;5000485;28;20057;-72
2021/12/07 12:04:50;;;;;;;3.28;2.88;;;12.00;59.00;;;;;;5000589;28;20142;-71
2021/12/07 12:07:19;;;;;;;3.63;2.28;;;12.00;58.90;;;;;;5000482;28;20031;-71
2021/12/07 12:09:49;;;;;;;3.30;2.47;;;12.00;58.90;;;;;;5000503;28;20089;-72
2021/12/07 12:12:32;;;;;;;4.07;2.65;;;12.00;58.80;;;;;;5000005;28;20377;-71
2021/12/07 12:15:02;;;;;;;2.92;2.42;;;12.00;58.80;;;;;;5000464;28;20531;-71
2021/12/07 12:18:04;;;;;;;2.88;2.45;;;12.00;58.80;;;;;;4999122;28;20042;-72
2021/12/07 12:20:55;;;;;;;4.22;2.95;;;12.00;58.90;;;;;;5000378;28;20029;-72
2021/12/07 12:23:47;;;;;;;2.85;2.55;;;12.00;58.90;;;;;;4998908;28;20033;-72
2021/12/07 12:26:20;;;;;;;3.80;2.97;;;12.00;58.90;;;;;;5000247;28;20022;-71
2021/12/07 12:28:49;;;;;;;3.80;2.60;;;12.00;58.80;;;;;;4999618;28;20017;-72
2021/12/07 12:31:16;;;;;;;;;;;12.00;58.80;;;;;;5000636;28;20292;-71
2021/12/07 12:33:51;;;;;;;2.90;2.40;;;12.00;58.80;;;;;;5000137;28;19909;-71
2021/12/07 12:36:19;;;;;;;2.78;2.38;;;12.00;59.00;;;;;;5000309;28;20137;-71
2021/12/07 12:38:54;;;;;;;3.67;2.80;;;11.90;59.30;;;;;;5000182;28;20038;-72
2021/12/07 12:41:21;;;;;;;3.20;2.65;;;11.90;59.10;;;;;;5015354;28;20030;-70
2021/12/07 12:43:55;;;;;;;3.25;2.70;;;12.00;59.00;;;;;;5000073;28;20030;-72
2021/12/07 12:46:30;;;;;;;3.45;2.47;;;12.00;58.90;;;;;;5000035;28;20026;-71
2021/12/07 12:49:10;;;;;;;3.58;2.90;;;12.00;58.70;;;;;;5000084;28;20025;-71
2021/12/07 12:52:03;;;;;;;3.00;2.50;;;12.00;58.70;;;;;;5000081;28;20025;-72
2021/12/07 12:54:42;;;;;;;3.63;2.85;;;12.00;58.80;;;;;;4996804;28;20326;-72
2021/12/07 12:57:15;;;;;;;3.28;2.45;;;12.00;58.80;;;;;;5000111;28;20538;-73
2021/12/07 12:59:44;;;;;;;3.15;2.70;;;12.00;58.90;;;;;;5015080;28;20049;-71
2021/12/07 13:02:10;;;;;;;;;;;11.90;59.10;;;;;;4999124;28;20026;-71
2021/12/07 13:04:36;;;;;;;4.63;2.95;;;11.90;59.30;;;;;;4999893;28;19909;-72
2021/12/07 13:09:46;;;;;;;3.00;2.45;;;11.90;59.30;;;;;;4999931;28;20026;-72
2021/12/07 13:12:20;;;;;;;3.17;2.42;;;11.90;59.20;;;;;;4999851;28;20030;-72
2021/12/07 13:14:49;;;;;;;3.20;2.55;;;11.90;59.10;;;;;;5014917;28;20053;-72
2021/12/07 13:17:35;;;;;;;4.05;2.75;;;12.00;59.00;;;;;;4998475;28;20230;-74
2021/12/07 13:20:19;;;;;;;3.95;2.45;;;12.00;58.80;;;;;;4995668;28;20027;-73
2021/12/07 13:22:56;;;;;;;3.67;2.80;;;12.00;58.70;;;;;;4999703;28;20030;-72
2021/12/07 13:25:29;;;;;;;3.20;2.78;;;12.10;58.70;;;;;;5014828;28;20049;-71
2021/12/07 13:28:10;;;;;;;3.45;3.03;;;12.10;58.40;;;;;;4999680;28;20061;-71
2021/12/07 13:30:36;;;;;;;4.32;3.15;;;12.10;58.50;;;;;;4999711;28;20019;-71
2021/12/07 13:33:31;;;;;;;3.15;2.63;;;12.00;58.70;;;;;;4999601;28;20085;-72
2021/12/07 13:35:58;;;;;;;4.53;3.28;;;12.10;58.80;;;;;;5014704;28;20211;-72
2021/12/07 13:38:29;;;;;;;3.67;3.03;;;12.10;58.70;;;;;;4999664;28;20023;-72
2021/12/07 13:41:28;;;;;;;3.65;3.08;;;12.10;58.60;;;;;;5017740;28;20026;-72
2021/12/07 13:43:56;;;;;;;4.85;3.00;;;12.10;58.50;;;;;;4991160;28;20050;-70
2021/12/07 13:46:25;;;;;;;3.10;2.38;;;12.20;58.50;;;;;;5003135;28;20057;-71
2021/12/07 13:48:52;;;;;;;;;;;12.20;58.40;;;;;;5003503;28;20021;-72
2021/12/07 13:51:20;;;;;;;3.08;2.45;;;12.20;58.40;;;;;;5002990;28;19909;-71
2021/12/07 13:53:48;;;;;;;3.55;2.92;;;12.20;58.30;;;;;;5017883;28;20043;-71
2021/12/07 13:56:13;;;;;;;4.03;3.00;;;12.10;58.50;;;;;;5002906;28;20026;-71
2021/12/07 13:59:00;;;;;;;4.80;2.85;;;12.10;58.50;;;;;;5002793;28;20023;-71
2021/12/07 14:01:31;;;;;;;3.88;2.90;;;12.10;58.60;;;;;;5002850;28;20078;-72
2021/12/07 14:03:57;;;;;;;4.68;3.25;;;12.10;58.50;;;;;;5002716;28;20063;-72
2021/12/07 14:06:24;;;;;;;3.67;2.90;;;12.10;58.60;;;;;;5002762;28;20018;-71
2021/12/07 14:08:50;;;;;;;2.95;2.28;;;12.20;58.70;;;;;;5002654;28;20022;-71
2021/12/07 14:11:18;;;;;;;4.43;3.10;;;12.10;58.60;;;;;;5001687;28;20025;-71
2021/12/07 14:13:49;;;;;;;4.03;2.92;;;12.10;58.60;;;;;;5002542;28;20026;-72
2021/12/07 14:16:21;;;;;;;3.92;2.78;;;12.10;58.90;;;;;;5002582;28;20034;-73
2021/12/07 14:18:47;;;;;;;3.40;3.10;;;12.10;58.80;;;;;;5001296;28;20072;-72
2021/12/07 14:21:12;;;;;;;4.18;2.83;;;12.10;58.80;;;;;;5002421;28;20026;-72
2021/12/07 14:23:47;;;;;;;3.70;2.72;;;12.10;58.70;;;;;;5002281;28;20341;-72
2021/12/07 14:26:18;;;;;;;3.80;2.70;;;12.10;58.70;;;;;;5002372;28;20069;-72
2021/12/07 14:29:04;;;;;;;5.28;3.50;;;12.10;58.70;;;;;;5002561;28;20018;-72
2021/12/07 14:31:40;;;;;;;4.65;3.30;;;12.10;58.70;;;;;;5002183;28;20026;-72
2021/12/07 14:34:13;;;;;;;3.75;2.63;;;12.10;58.90;;;;;;5002226;28;20018;-72
2021/12/07 14:36:44;;;;;;;4.50;3.28;;;12.00;58.90;;;;;;5002372;28;20076;-71
2021/12/07 14:39:13;;;;;;;4.28;2.95;;;12.10;58.90;;;;;;5002102;28;20355;-71
2021/12/07 14:41:51;;;;;;;3.67;2.65;;;12.10;58.90;;;;;;5002138;28;20025;-72
2021/12/07 14:44:21;;;;;;;4.03;3.15;;;12.10;58.90;;;;;;5002030;28;20042;-71
2021/12/07 14:46:48;;;;;;;4.10;2.75;;;12.10;58.80;;;;;;5002237;28;20023;-70